sensor_id;sensor_type;location;lat;lon;timestamp;pressure;altitude;pressure_sealevel;temperature;humidity
23261;BME280;11799;47.740;-3.390;2023-06-22T00:00:43;101660.25;;;18.24;100.00
23261;BME280;11799;47.740;-3.390;2023-06-22T00:03:10;101653.75;;;18.26;100.00
23261;BME280;11799;47.740;-3.390;2023-06-22T00:05:35;101657.56;;;18.24;100.00
23261;BME280;11799;47.740;-3.390;2023-06-22T00:08:04;101659.72;;;18.20;100.00
23261;BME280;11799;47.740;-3.390;2023-06-22T00:10:33;101658.03;;;18.19;100.00
23261;BME280;11799;47.740;-3.390;2023-06-22T00:12:58;101655.25;;;18.11;100.00
23261;BME280;11799;47.740;-3.390;2023-06-22T00:15:24;101648.91;;;18.12;100.00
23261;BME280;11799;47.740;-3.390;2023-06-22T00:17:50;101652.41;;;18.12;100.00
23261;BME280;11799;47.740;-3.390;2023-06-22T00:20:16;101653.25;;;18.13;100.00
23261;BME280;11799;47.740;-3.390;2023-06-22T00:22:44;101654.56;;;18.09;100.00
23261;BME280;11799;47.740;-3.390;2023-06-22T00:25:09;101655.38;;;18.09;100.00
23261;BME280;11799;47.740;-3.390;2023-06-22T00:27:36;101649.91;;;18.11;100.00
23261;BME280;11799;47.740;-3.390;2023-06-22T00:30:02;101656.38;;;18.08;100.00
23261;BME280;11799;47.740;-3.390;2023-06-22T00:32:28;101659.63;;;18.02;100.00
23261;BME280;11799;47.740;-3.390;2023-06-22T00:34:53;101654.44;;;18.01;100.00
23261;BME280;11799;47.740;-3.390;2023-06-22T00:37:19;101655.72;;;17.97;100.00
23261;BME280;11799;47.740;-3.390;2023-06-22T00:39:48;101644.88;;;17.98;100.00
23261;BME280;11799;47.740;-3.390;2023-06-22T00:42:13;101641.53;;;17.96;100.00
23261;BME280;11799;47.740;-3.390;2023-06-22T00:44:39;101640.97;;;17.93;100.00
23261;BME280;11799;47.740;-3.390;2023-06-22T00:47:04;101642.97;;;17.91;100.00
23261;BME280;11799;47.740;-3.390;2023-06-22T00:49:31;101642.28;;;17.89;100.00
23261;BME280;11799;47.740;-3.390;2023-06-22T00:51:57;101644.97;;;17.89;100.00
23261;BME280;11799;47.740;-3.390;2023-06-22T00:54:24;101644.41;;;17.85;100.00
23261;BME280;11799;47.740;-3.390;2023-06-22T00:57:02;101648.75;;;17.86;100.00
23261;BME280;11799;47.740;-3.390;2023-06-22T00:59:28;101643.28;;;17.88;100.00
23261;BME280;11799;47.740;-3.390;2023-06-22T01:01:54;101642.72;;;17.84;100.00
23261;BME280;11799;47.740;-3.390;2023-06-22T01:04:23;101650.44;;;17.87;100.00
23261;BME280;11799;47.740;-3.390;2023-06-22T01:07:15;101644.69;;;17.82;100.00
23261;BME280;11799;47.740;-3.390;2023-06-22T01:10:21;101640.50;;;17.79;100.00
23261;BME280;11799;47.740;-3.390;2023-06-22T01:12:52;101640.50;;;17.79;100.00
23261;BME280;11799;47.740;-3.390;2023-06-22T01:15:28;101640.91;;;17.75;100.00
23261;BME280;11799;47.740;-3.390;2023-06-22T01:17:57;101642.19;;;17.71;100.00
23261;BME280;11799;47.740;-3.390;2023-06-22T01:20:25;101646.28;;;17.65;100.00
23261;BME280;11799;47.740;-3.390;2023-06-22T01:23:20;101647.97;;;17.66;100.00
23261;BME280;11799;47.740;-3.390;2023-06-22T01:26:06;101650.06;;;17.63;100.00
23261;BME280;11799;47.740;-3.390;2023-06-22T01:28:46;101649.38;;;17.61;100.00
23261;BME280;11799;47.740;-3.390;2023-06-22T01:31:18;101650.34;;;17.60;100.00
23261;BME280;11799;47.740;-3.390;2023-06-22T01:33:47;101651.78;;;17.54;100.00
23261;BME280;11799;47.740;-3.390;2023-06-22T01:36:14;101626.34;;;17.50;100.00
23261;BME280;11799;47.740;-3.390;2023-06-22T01:38:42;101644.59;;;17.55;100.00
23261;BME280;11799;47.740;-3.390;2023-06-22T01:41:07;101640.53;;;17.50;100.00
23261;BME280;11799;47.740;-3.390;2023-06-22T01:43:34;101637.16;;;17.48;100.00
23261;BME280;11799;47.740;-3.390;2023-06-22T01:46:02;101639.00;;;17.48;100.00
23261;BME280;11799;47.740;-3.390;2023-06-22T01:48:28;101629.59;;;17.44;100.00
23261;BME280;11799;47.740;-3.390;2023-06-22T01:50:54;101624.44;;;17.33;100.00
23261;BME280;11799;47.740;-3.390;2023-06-22T01:53:21;101636.19;;;17.40;100.00
23261;BME280;11799;47.740;-3.390;2023-06-22T01:55:47;101648.00;;;17.37;100.00
23261;BME280;11799;47.740;-3.390;2023-06-22T01:58:13;101636.75;;;17.34;100.00
23261;BME280;11799;47.740;-3.390;2023-06-22T02:00:41;101641.44;;;17.32;100.00
23261;BME280;11799;47.740;-3.390;2023-06-22T02:03:13;101642.28;;;17.32;100.00
23261;BME280;11799;47.740;-3.390;2023-06-22T02:05:49;101647.91;;;17.29;100.00
23261;BME280;11799;47.740;-3.390;2023-06-22T02:08:20;101643.00;;;17.25;100.00
23261;BME280;11799;47.740;-3.390;2023-06-22T02:10:47;101638.50;;;17.25;100.00
23261;BME280;11799;47.740;-3.390;2023-06-22T02:13:14;101636.66;;;17.26;100.00
23261;BME280;11799;47.740;-3.390;2023-06-22T02:15:41;101636.53;;;17.27;100.00
23261;BME280;11799;47.740;-3.390;2023-06-22T02:18:07;101634.00;;;17.16;100.00
23261;BME280;11799;47.740;-3.390;2023-06-22T02:20:36;101638.22;;;17.19;100.00
23261;BME280;11799;47.740;-3.390;2023-06-22T02:23:02;101639.91;;;17.20;100.00
23261;BME280;11799;47.740;-3.390;2023-06-22T02:25:28;101638.38;;;17.17;100.00
23261;BME280;11799;47.740;-3.390;2023-06-22T02:27:53;101629.66;;;17.15;100.00
23261;BME280;11799;47.740;-3.390;2023-06-22T02:30:19;101629.66;;;17.15;100.00
23261;BME280;11799;47.740;-3.390;2023-06-22T02:32:44;101624.75;;;17.10;100.00
23261;BME280;11799;47.740;-3.390;2023-06-22T02:35:10;101627.69;;;17.07;100.00
23261;BME280;11799;47.740;-3.390;2023-06-22T02:37:36;101624.19;;;17.07;100.00
23261;BME280;11799;47.740;-3.390;2023-06-22T02:40:10;101624.47;;;17.04;100.00
23261;BME280;11799;47.740;-3.390;2023-06-22T02:42:39;101621.09;;;17.02;100.00
23261;BME280;11799;47.740;-3.390;2023-06-22T02:45:05;101628.13;;;17.03;100.00
23261;BME280;11799;47.740;-3.390;2023-06-22T02:47:30;101625.31;;;17.04;100.00
23261;BME280;11799;47.740;-3.390;2023-06-22T02:49:57;101624.75;;;17.01;100.00
23261;BME280;11799;47.740;-3.390;2023-06-22T02:52:23;101620.41;;;17.00;100.00
23261;BME280;11799;47.740;-3.390;2023-06-22T02:54:48;101626.00;;;16.97;100.00
23261;BME280;11799;47.740;-3.390;2023-06-22T02:57:14;101628.41;;;16.90;100.00
23261;BME280;11799;47.740;-3.390;2023-06-22T02:59:41;101622.50;;;16.87;100.00
23261;BME280;11799;47.740;-3.390;2023-06-22T03:02:09;101617.44;;;16.83;100.00
23261;BME280;11799;47.740;-3.390;2023-06-22T03:04:35;101617.31;;;16.85;100.00
23261;BME280;11799;47.740;-3.390;2023-06-22T03:07:01;101620.13;;;16.83;100.00
23261;BME280;11799;47.740;-3.390;2023-06-22T03:09:28;101620.25;;;16.82;100.00
23261;BME280;11799;47.740;-3.390;2023-06-22T03:11:56;101618.13;;;16.76;100.00
23261;BME280;11799;47.740;-3.390;2023-06-22T03:14:24;101600.47;;;16.65;100.00
23261;BME280;11799;47.740;-3.390;2023-06-22T03:16:51;101618.88;;;16.68;100.00
23261;BME280;11799;47.740;-3.390;2023-06-22T03:19:18;101620.22;;;16.63;100.00
23261;BME280;11799;47.740;-3.390;2023-06-22T03:21:45;101617.84;;;16.60;100.00
23261;BME280;11799;47.740;-3.390;2023-06-22T03:24:10;101621.22;;;16.62;100.00
23261;BME280;11799;47.740;-3.390;2023-06-22T03:26:37;101626.81;;;16.59;100.00
23261;BME280;11799;47.740;-3.390;2023-06-22T03:29:02;101624.44;;;16.56;100.00
23261;BME280;11799;47.740;-3.390;2023-06-22T03:31:29;101630.19;;;16.61;100.00
23261;BME280;11799;47.740;-3.390;2023-06-22T03:33:55;101634.81;;;16.59;100.00
23261;BME280;11799;47.740;-3.390;2023-06-22T03:36:22;101625.69;;;16.51;100.00
23261;BME280;11799;47.740;-3.390;2023-06-22T03:38:49;101640.44;;;16.56;100.00
23261;BME280;11799;47.740;-3.390;2023-06-22T03:41:16;101641.13;;;16.48;100.00
23261;BME280;11799;47.740;-3.390;2023-06-22T03:43:42;101637.34;;;16.50;100.00
23261;BME280;11799;47.740;-3.390;2023-06-22T03:46:07;101646.31;;;16.49;100.00
23261;BME280;11799;47.740;-3.390;2023-06-22T03:48:33;101642.22;;;16.45;100.00
23261;BME280;11799;47.740;-3.390;2023-06-22T03:50:59;101635.09;;;16.46;100.00
23261;BME280;11799;47.740;-3.390;2023-06-22T03:53:25;101634.94;;;16.47;100.00
23261;BME280;11799;47.740;-3.390;2023-06-22T03:55:51;101630.72;;;16.45;100.00
23261;BME280;11799;47.740;-3.390;2023-06-22T03:58:20;101639.72;;;16.44;100.00
23261;BME280;11799;47.740;-3.390;2023-06-22T04:00:50;101637.88;;;16.44;100.00
23261;BME280;11799;47.740;-3.390;2023-06-22T04:03:17;101645.88;;;16.44;100.00
23261;BME280;11799;47.740;-3.390;2023-06-22T04:05:46;101645.03;;;16.44;100.00
23261;BME280;11799;47.740;-3.390;2023-06-22T04:08:13;101649.94;;;16.39;100.00
23261;BME280;11799;47.740;-3.390;2023-06-22T04:10:38;101656.25;;;16.38;100.00
23261;BME280;11799;47.740;-3.390;2023-06-22T04:13:04;101658.19;;;16.36;100.00
23261;BME280;11799;47.740;-3.390;2023-06-22T04:15:29;101667.03;;;16.36;100.00
23261;BME280;11799;47.740;-3.390;2023-06-22T04:17:55;101662.56;;;16.37;100.00
23261;BME280;11799;47.740;-3.390;2023-06-22T04:20:21;101672.50;;;16.35;100.00
23261;BME280;11799;47.740;-3.390;2023-06-22T04:22:47;101670.38;;;16.29;100.00
23261;BME280;11799;47.740;-3.390;2023-06-22T04:25:13;101674.75;;;16.30;100.00
23261;BME280;11799;47.740;-3.390;2023-06-22T04:27:39;101669.97;;;16.33;100.00
23261;BME280;11799;47.740;-3.390;2023-06-22T04:30:07;101680.06;;;16.30;100.00
23261;BME280;11799;47.740;-3.390;2023-06-22T04:32:35;101685.81;;;16.25;100.00
23261;BME280;11799;47.740;-3.390;2023-06-22T04:35:04;101683.84;;;16.27;100.00
23261;BME280;11799;47.740;-3.390;2023-06-22T04:37:30;101677.41;;;16.30;100.00
23261;BME280;11799;47.740;-3.390;2023-06-22T04:39:56;101684.69;;;16.28;100.00
23261;BME280;11799;47.740;-3.390;2023-06-22T04:42:22;101683.69;;;16.19;100.00
23261;BME280;11799;47.740;-3.390;2023-06-22T04:44:47;101685.94;;;16.24;100.00
23261;BME280;11799;47.740;-3.390;2023-06-22T04:47:13;101682.28;;;16.25;100.00
23261;BME280;11799;47.740;-3.390;2023-06-22T04:49:38;101691.97;;;16.26;100.00
23261;BME280;11799;47.740;-3.390;2023-06-22T04:52:10;101689.84;;;16.19;100.00
23261;BME280;11799;47.740;-3.390;2023-06-22T04:54:38;101686.06;;;16.22;100.00
23261;BME280;11799;47.740;-3.390;2023-06-22T04:57:07;101689.56;;;16.23;100.00
23261;BME280;11799;47.740;-3.390;2023-06-22T04:59:37;101690.16;;;16.26;100.00
23261;BME280;11799;47.740;-3.390;2023-06-22T05:02:05;101689.03;;;16.29;100.00
23261;BME280;11799;47.740;-3.390;2023-06-22T05:04:31;101694.38;;;16.29;100.00
23261;BME280;11799;47.740;-3.390;2023-06-22T05:06:58;101695.34;;;16.28;100.00
23261;BME280;11799;47.740;-3.390;2023-06-22T05:09:23;101699.44;;;16.32;100.00
23261;BME280;11799;47.740;-3.390;2023-06-22T05:11:50;101695.66;;;16.34;100.00
23261;BME280;11799;47.740;-3.390;2023-06-22T05:14:16;101704.50;;;16.35;100.00
23261;BME280;11799;47.740;-3.390;2023-06-22T05:16:42;101711.38;;;16.37;100.00
23261;BME280;11799;47.740;-3.390;2023-06-22T05:19:08;101704.22;;;16.38;100.00
23261;BME280;11799;47.740;-3.390;2023-06-22T05:21:34;101709.03;;;16.44;100.00
23261;BME280;11799;47.740;-3.390;2023-06-22T05:24:00;101708.47;;;16.50;100.00
23261;BME280;11799;47.740;-3.390;2023-06-22T05:26:29;101712.28;;;16.57;100.00
23261;BME280;11799;47.740;-3.390;2023-06-22T05:28:56;101700.50;;;16.60;100.00
23261;BME280;11799;47.740;-3.390;2023-06-22T05:31:22;101706.31;;;16.65;100.00
23261;BME280;11799;47.740;-3.390;2023-06-22T05:33:51;101696.78;;;16.72;100.00
23261;BME280;11799;47.740;-3.390;2023-06-22T05:36:17;101695.91;;;16.81;100.00
23261;BME280;11799;47.740;-3.390;2023-06-22T05:38:45;101701.97;;;16.83;100.00
23261;BME280;11799;47.740;-3.390;2023-06-22T05:41:11;101697.63;;;16.92;100.00
23261;BME280;11799;47.740;-3.390;2023-06-22T05:43:36;101686.13;;;17.01;100.00
23261;BME280;11799;47.740;-3.390;2023-06-22T05:46:03;101690.47;;;17.11;100.00
23261;BME280;11799;47.740;-3.390;2023-06-22T05:48:29;101697.22;;;17.15;100.00
23261;BME280;11799;47.740;-3.390;2023-06-22T05:50:54;101694.13;;;17.30;100.00
23261;BME280;11799;47.740;-3.390;2023-06-22T05:53:20;101686.22;;;17.38;100.00
23261;BME280;11799;47.740;-3.390;2023-06-22T05:55:46;101682.00;;;17.55;100.00
23261;BME280;11799;47.740;-3.390;2023-06-22T05:58:11;101674.09;;;17.72;100.00
23261;BME280;11799;47.740;-3.390;2023-06-22T06:00:39;101689.59;;;18.06;100.00
23261;BME280;11799;47.740;-3.390;2023-06-22T06:03:04;101687.09;;;18.32;100.00
23261;BME280;11799;47.740;-3.390;2023-06-22T06:05:31;101694.00;;;18.52;100.00
23261;BME280;11799;47.740;-3.390;2023-06-22T06:07:57;101695.59;;;18.72;100.00
23261;BME280;11799;47.740;-3.390;2023-06-22T06:10:23;101687.38;;;19.01;100.00
23261;BME280;11799;47.740;-3.390;2023-06-22T06:12:48;101689.63;;;19.32;100.00
23261;BME280;11799;47.740;-3.390;2023-06-22T06:15:14;101675.66;;;19.46;100.00
23261;BME280;11799;47.740;-3.390;2023-06-22T06:17:52;101688.56;;;19.68;100.00
23261;BME280;11799;47.740;-3.390;2023-06-22T06:20:20;101689.81;;;19.82;100.00
23261;BME280;11799;47.740;-3.390;2023-06-22T06:22:47;101692.06;;;19.69;100.00
23261;BME280;11799;47.740;-3.390;2023-06-22T06:25:13;101695.19;;;19.56;100.00
23261;BME280;11799;47.740;-3.390;2023-06-22T06:27:51;101699.25;;;19.42;100.00
23261;BME280;11799;47.740;-3.390;2023-06-22T06:30:18;101695.13;;;19.30;100.00
23261;BME280;11799;47.740;-3.390;2023-06-22T06:32:45;101709.13;;;19.24;100.00
23261;BME280;11799;47.740;-3.390;2023-06-22T06:35:12;101707.59;;;19.22;100.00
23261;BME280;11799;47.740;-3.390;2023-06-22T06:37:39;101704.31;;;19.28;100.00
23261;BME280;11799;47.740;-3.390;2023-06-22T06:40:10;101701.78;;;19.44;100.00
23261;BME280;11799;47.740;-3.390;2023-06-22T06:42:38;101704.53;;;19.52;100.00
23261;BME280;11799;47.740;-3.390;2023-06-22T06:45:06;101699.81;;;19.72;100.00
23261;BME280;11799;47.740;-3.390;2023-06-22T06:47:32;101695.50;;;20.05;100.00
23261;BME280;11799;47.740;-3.390;2023-06-22T06:49:57;101708.84;;;20.31;100.00
23261;BME280;11799;47.740;-3.390;2023-06-22T06:52:23;101711.97;;;20.52;100.00
23261;BME280;11799;47.740;-3.390;2023-06-22T06:54:48;101706.69;;;20.76;100.00
23261;BME280;11799;47.740;-3.390;2023-06-22T06:57:14;101715.41;;;20.87;100.00
23261;BME280;11799;47.740;-3.390;2023-06-22T06:59:41;101709.38;;;20.93;100.00
23261;BME280;11799;47.740;-3.390;2023-06-22T07:02:06;101716.09;;;20.97;100.00
23261;BME280;11799;47.740;-3.390;2023-06-22T07:04:32;101709.06;;;21.04;100.00
23261;BME280;11799;47.740;-3.390;2023-06-22T07:07:00;101714.09;;;21.15;100.00
23261;BME280;11799;47.740;-3.390;2023-06-22T07:09:26;101709.91;;;21.21;100.00
23261;BME280;11799;47.740;-3.390;2023-06-22T07:11:52;101713.47;;;21.29;100.00
23261;BME280;11799;47.740;-3.390;2023-06-22T07:14:17;101716.16;;;21.46;100.00
23261;BME280;11799;47.740;-3.390;2023-06-22T07:16:43;101714.97;;;21.56;100.00
23261;BME280;11799;47.740;-3.390;2023-06-22T07:19:11;101712.94;;;21.66;100.00
23261;BME280;11799;47.740;-3.390;2023-06-22T07:21:37;101708.38;;;21.83;100.00
23261;BME280;11799;47.740;-3.390;2023-06-22T07:24:02;101715.59;;;21.91;100.00
23261;BME280;11799;47.740;-3.390;2023-06-22T07:26:28;101717.72;;;22.12;100.00
23261;BME280;11799;47.740;-3.390;2023-06-22T07:28:53;101716.59;;;22.45;100.00
23261;BME280;11799;47.740;-3.390;2023-06-22T07:31:19;101721.88;;;22.61;100.00
23261;BME280;11799;47.740;-3.390;2023-06-22T07:33:44;101720.16;;;22.68;100.00
23261;BME280;11799;47.740;-3.390;2023-06-22T07:36:10;101720.66;;;22.72;100.00
23261;BME280;11799;47.740;-3.390;2023-06-22T07:38:36;101720.19;;;22.99;100.00
23261;BME280;11799;47.740;-3.390;2023-06-22T07:41:02;101719.88;;;23.17;100.00
23261;BME280;11799;47.740;-3.390;2023-06-22T07:43:31;101731.72;;;23.31;100.00
23261;BME280;11799;47.740;-3.390;2023-06-22T07:45:58;101736.38;;;23.14;100.00
23261;BME280;11799;47.740;-3.390;2023-06-22T07:48:24;101738.91;;;23.16;100.00
23261;BME280;11799;47.740;-3.390;2023-06-22T07:50:49;101742.84;;;23.51;100.00
23261;BME280;11799;47.740;-3.390;2023-06-22T07:53:15;101740.69;;;23.46;100.00
23261;BME280;11799;47.740;-3.390;2023-06-22T07:55:40;101740.94;;;23.36;100.00
23261;BME280;11799;47.740;-3.390;2023-06-22T07:58:06;101735.50;;;23.45;100.00
23261;BME280;11799;47.740;-3.390;2023-06-22T08:00:33;101749.22;;;23.58;100.00
23261;BME280;11799;47.740;-3.390;2023-06-22T08:02:58;101749.88;;;23.60;100.00
23261;BME280;11799;47.740;-3.390;2023-06-22T08:05:24;101747.06;;;23.53;100.00
23261;BME280;11799;47.740;-3.390;2023-06-22T08:07:50;101759.19;;;23.49;100.00
23261;BME280;11799;47.740;-3.390;2023-06-22T08:10:15;101751.47;;;23.69;100.00
23261;BME280;11799;47.740;-3.390;2023-06-22T08:12:41;101759.28;;;23.64;100.00
23261;BME280;11799;47.740;-3.390;2023-06-22T08:15:07;101757.69;;;23.55;100.00
23261;BME280;11799;47.740;-3.390;2023-06-22T08:17:34;101767.84;;;23.45;100.00
23261;BME280;11799;47.740;-3.390;2023-06-22T08:20:00;101761.31;;;23.39;100.00
23261;BME280;11799;47.740;-3.390;2023-06-22T08:22:25;101765.25;;;23.28;100.00
23261;BME280;11799;47.740;-3.390;2023-06-22T08:24:51;101758.78;;;23.15;100.00
23261;BME280;11799;47.740;-3.390;2023-06-22T08:27:16;101774.09;;;23.14;100.00
23261;BME280;11799;47.740;-3.390;2023-06-22T08:29:44;101772.16;;;23.08;100.00
23261;BME280;11799;47.740;-3.390;2023-06-22T08:32:11;101770.13;;;23.10;100.00
23261;BME280;11799;47.740;-3.390;2023-06-22T08:34:37;101779.56;;;23.06;100.00
23261;BME280;11799;47.740;-3.390;2023-06-22T08:37:10;101768.44;;;23.09;100.00
23261;BME280;11799;47.740;-3.390;2023-06-22T08:39:36;101778.56;;;23.07;100.00
23261;BME280;11799;47.740;-3.390;2023-06-22T08:42:01;101782.13;;;22.99;100.00
23261;BME280;11799;47.740;-3.390;2023-06-22T08:46:52;101776.09;;;22.97;100.00
23261;BME280;11799;47.740;-3.390;2023-06-22T08:49:18;101779.94;;;23.03;100.00
23261;BME280;11799;47.740;-3.390;2023-06-22T08:51:43;101777.91;;;23.05;100.00
23261;BME280;11799;47.740;-3.390;2023-06-22T08:54:11;101787.47;;;23.08;100.00
23261;BME280;11799;47.740;-3.390;2023-06-22T08:56:36;101786.28;;;23.10;100.00
23261;BME280;11799;47.740;-3.390;2023-06-22T08:59:02;101793.03;;;23.06;100.00
23261;BME280;11799;47.740;-3.390;2023-06-22T09:01:27;101791.69;;;23.10;100.00
23261;BME280;11799;47.740;-3.390;2023-06-22T09:03:53;101792.50;;;23.11;100.00
23261;BME280;11799;47.740;-3.390;2023-06-22T09:06:23;101793.72;;;23.08;100.00
23261;BME280;11799;47.740;-3.390;2023-06-22T09:08:49;101787.31;;;23.09;100.00
23261;BME280;11799;47.740;-3.390;2023-06-22T09:11:15;101802.06;;;23.13;100.00
23261;BME280;11799;47.740;-3.390;2023-06-22T09:13:41;101803.56;;;23.16;100.00
23261;BME280;11799;47.740;-3.390;2023-06-22T09:16:06;101795.00;;;23.12;100.00
23261;BME280;11799;47.740;-3.390;2023-06-22T09:18:33;101795.13;;;23.19;100.00
23261;BME280;11799;47.740;-3.390;2023-06-22T09:20:59;101802.38;;;23.18;100.00
23261;BME280;11799;47.740;-3.390;2023-06-22T09:23:25;101805.69;;;23.28;100.00
23261;BME280;11799;47.740;-3.390;2023-06-22T09:25:50;101796.41;;;23.31;100.00
23261;BME280;11799;47.740;-3.390;2023-06-22T09:28:16;101799.22;;;23.37;100.00
23261;BME280;11799;47.740;-3.390;2023-06-22T09:30:45;101797.72;;;23.35;100.00
23261;BME280;11799;47.740;-3.390;2023-06-22T09:33:10;101803.41;;;23.40;100.00
23261;BME280;11799;47.740;-3.390;2023-06-22T09:35:36;101813.31;;;23.48;100.00
23261;BME280;11799;47.740;-3.390;2023-06-22T09:38:02;101811.91;;;23.52;100.00
23261;BME280;11799;47.740;-3.390;2023-06-22T09:40:27;101817.81;;;23.55;100.00
23261;BME280;11799;47.740;-3.390;2023-06-22T09:42:53;101813.28;;;23.56;100.00
23261;BME280;11799;47.740;-3.390;2023-06-22T09:45:18;101815.97;;;23.56;100.00
23261;BME280;11799;47.740;-3.390;2023-06-22T09:47:44;101823.69;;;23.59;100.00
23261;BME280;11799;47.740;-3.390;2023-06-22T09:50:10;101831.50;;;23.68;99.87
23261;BME280;11799;47.740;-3.390;2023-06-22T09:52:35;101821.38;;;23.56;100.00
23261;BME280;11799;47.740;-3.390;2023-06-22T09:55:01;101823.69;;;23.59;100.00
23261;BME280;11799;47.740;-3.390;2023-06-22T09:57:29;101820.28;;;23.65;100.00
23261;BME280;11799;47.740;-3.390;2023-06-22T09:59:54;101817.41;;;23.66;100.00
23261;BME280;11799;47.740;-3.390;2023-06-22T10:02:20;101825.69;;;23.80;100.00
23261;BME280;11799;47.740;-3.390;2023-06-22T10:04:46;101826.47;;;23.88;100.00
23261;BME280;11799;47.740;-3.390;2023-06-22T10:07:11;101818.00;;;23.91;100.00
23261;BME280;11799;47.740;-3.390;2023-06-22T10:09:37;101812.25;;;23.94;97.35
23261;BME280;11799;47.740;-3.390;2023-06-22T10:12:02;101827.53;;;24.02;100.00
23261;BME280;11799;47.740;-3.390;2023-06-22T10:14:28;101814.78;;;24.11;98.79
23261;BME280;11799;47.740;-3.390;2023-06-22T10:16:54;101818.22;;;24.04;98.06
23261;BME280;11799;47.740;-3.390;2023-06-22T10:19:20;101820.38;;;24.09;100.00
23261;BME280;11799;47.740;-3.390;2023-06-22T10:21:46;101822.72;;;24.12;97.26
23261;BME280;11799;47.740;-3.390;2023-06-22T10:24:11;101823.06;;;24.09;93.68
23261;BME280;11799;47.740;-3.390;2023-06-22T10:26:37;101823.19;;;24.16;95.04
23261;BME280;11799;47.740;-3.390;2023-06-22T10:29:03;101831.38;;;24.22;91.57
23261;BME280;11799;47.740;-3.390;2023-06-22T10:31:28;101827.94;;;24.28;89.09
23261;BME280;11799;47.740;-3.390;2023-06-22T10:33:55;101826.38;;;24.34;93.97
23261;BME280;11799;47.740;-3.390;2023-06-22T10:36:21;101823.03;;;24.32;92.34
23261;BME280;11799;47.740;-3.390;2023-06-22T10:38:47;101826.19;;;24.35;100.00
23261;BME280;11799;47.740;-3.390;2023-06-22T10:41:13;101828.50;;;24.39;100.00
23261;BME280;11799;47.740;-3.390;2023-06-22T10:43:39;101828.97;;;24.42;98.85
23261;BME280;11799;47.740;-3.390;2023-06-22T10:46:04;101832.81;;;24.48;95.40
23261;BME280;11799;47.740;-3.390;2023-06-22T10:48:30;101834.66;;;24.47;100.00
23261;BME280;11799;47.740;-3.390;2023-06-22T10:50:56;101827.50;;;24.54;93.98
23261;BME280;11799;47.740;-3.390;2023-06-22T10:53:21;101826.84;;;24.67;100.00
23261;BME280;11799;47.740;-3.390;2023-06-22T10:55:47;101836.63;;;24.83;97.98
23261;BME280;11799;47.740;-3.390;2023-06-22T10:58:12;101841.75;;;24.78;98.22
23261;BME280;11799;47.740;-3.390;2023-06-22T11:00:38;101838.31;;;24.69;100.00
23261;BME280;11799;47.740;-3.390;2023-06-22T11:03:04;101844.81;;;24.75;98.49
23261;BME280;11799;47.740;-3.390;2023-06-22T11:05:29;101840.81;;;24.71;97.32
23261;BME280;11799;47.740;-3.390;2023-06-22T11:07:55;101841.19;;;24.82;99.32
23261;BME280;11799;47.740;-3.390;2023-06-22T11:10:21;101851.28;;;24.95;98.36
23261;BME280;11799;47.740;-3.390;2023-06-22T11:12:46;101836.09;;;24.94;100.00
23261;BME280;11799;47.740;-3.390;2023-06-22T11:15:12;101854.19;;;25.08;100.00
23261;BME280;11799;47.740;-3.390;2023-06-22T11:17:38;101851.38;;;25.16;100.00
23261;BME280;11799;47.740;-3.390;2023-06-22T11:20:04;101858.38;;;25.11;100.00
23261;BME280;11799;47.740;-3.390;2023-06-22T11:22:39;101857.72;;;25.23;100.00
23261;BME280;11799;47.740;-3.390;2023-06-22T11:25:06;101859.13;;;25.19;100.00
23261;BME280;11799;47.740;-3.390;2023-06-22T11:27:32;101860.25;;;25.10;100.00
23261;BME280;11799;47.740;-3.390;2023-06-22T11:29:57;101853.47;;;24.99;100.00
23261;BME280;11799;47.740;-3.390;2023-06-22T11:32:23;101859.06;;;24.98;100.00
23261;BME280;11799;47.740;-3.390;2023-06-22T11:34:49;101855.78;;;25.02;100.00
23261;BME280;11799;47.740;-3.390;2023-06-22T11:37:15;101861.44;;;25.22;100.00
23261;BME280;11799;47.740;-3.390;2023-06-22T11:39:41;101863.84;;;25.32;100.00
23261;BME280;11799;47.740;-3.390;2023-06-22T11:42:07;101869.13;;;25.40;100.00
23261;BME280;11799;47.740;-3.390;2023-06-22T11:44:33;101864.94;;;25.59;100.00
23261;BME280;11799;47.740;-3.390;2023-06-22T11:46:59;101865.03;;;25.65;94.19
23261;BME280;11799;47.740;-3.390;2023-06-22T11:49:26;101862.88;;;25.61;88.86
23261;BME280;11799;47.740;-3.390;2023-06-22T11:51:52;101868.91;;;25.78;97.35
23261;BME280;11799;47.740;-3.390;2023-06-22T11:54:18;101863.88;;;25.96;99.83
23261;BME280;11799;47.740;-3.390;2023-06-22T11:56:44;101864.94;;;26.02;99.51
23261;BME280;11799;47.740;-3.390;2023-06-22T11:59:09;101851.06;;;26.11;98.73
23261;BME280;11799;47.740;-3.390;2023-06-22T12:01:35;101858.38;;;26.17;94.72
23261;BME280;11799;47.740;-3.390;2023-06-22T12:04:00;101847.22;;;26.27;100.00
23261;BME280;11799;47.740;-3.390;2023-06-22T12:06:26;101848.88;;;26.28;96.64
23261;BME280;11799;47.740;-3.390;2023-06-22T12:08:51;101841.03;;;26.33;89.33
23261;BME280;11799;47.740;-3.390;2023-06-22T12:11:17;101844.09;;;26.51;91.60
23261;BME280;11799;47.740;-3.390;2023-06-22T12:13:43;101839.88;;;26.90;94.10
23261;BME280;11799;47.740;-3.390;2023-06-22T12:16:08;101842.72;;;27.23;87.18
23261;BME280;11799;47.740;-3.390;2023-06-22T12:18:34;101835.50;;;27.56;87.32
23261;BME280;11799;47.740;-3.390;2023-06-22T12:20:59;101838.25;;;28.03;81.20
23261;BME280;11799;47.740;-3.390;2023-06-22T12:23:25;101834.59;;;28.62;77.11
23261;BME280;11799;47.740;-3.390;2023-06-22T12:25:50;101830.47;;;29.04;65.27
23261;BME280;11799;47.740;-3.390;2023-06-22T12:28:16;101832.53;;;29.46;65.98
23261;BME280;11799;47.740;-3.390;2023-06-22T12:30:42;101835.78;;;30.11;68.54